• Join FlightAware (Why Join?)
  • Login
  • US Flag 
06:38PM EDT


 

Airport Tracker/Info


-or-


 

Live Flight TrackerFlight Track Log ✈ TSO558 ✈ 16-May-2013 ✈ KLAX - UUDD / DME

Flight Track Log - Related Links

Times and Time Zones

All times are in EDT time to prevent confusion due to time zone crossing. See the TSO558 flight status page for this flight to view local times or setup timezone preferences in your user account.

Time Position Orientation Groundspeed Altitude Reporting Facility
EDT Latitude Longitude Course Direction KTS MPH feet Rate Location/Type
07:45PM 33.9436 -118.4853 338° Northwest 174 200 2,000  Level Los Angeles Center
07:46PM 33.9394 -118.5492 266° West 189 217 3,300 1,020 Climbing Los Angeles Center
07:47PM 33.9331 -118.6319 265° West 242 278 4,200 1,500 Climbing Los Angeles Center
07:48PM 33.9553 -118.7136 288° West 272 313 6,400 1,980 Climbing Los Angeles Center
07:49PM 34.0356 -118.6981 North 296 341 8,300 1,200 Climbing Los Angeles Center
07:50PM 34.4923 -118.7045 338° Northwest  Level FlightAware Approximate
07:50PM 34.1075 -118.6575 25° Northeast 319 367 9,000  Level Los Angeles Center
07:51PM 34.1897 -118.6189 21° North 316 364 10,000 1,740 Climbing Los Angeles Center
07:52PM 34.2944 -118.6219 359° North 316 364 12,600 2,100 Climbing Los Angeles Center
07:53PM 34.3797 -118.6625 339° North 326 375 14,400 1,380 Climbing Los Angeles Center
07:54PM 34.4725 -118.7067 339° North 360 414 15,500 900 Climbing Los Angeles Center
07:55PM 34.5775 -118.7564 339° North 407 468 16,300 1,140 Climbing Los Angeles Center
07:56PM 34.6925 -118.8097 339° North 442 509 17,900 1,620 Climbing Los Angeles Center
07:57PM 34.8100 -118.8636 339° North 451 519 19,700 1,740 Climbing Los Angeles Center
07:58PM 34.9633 -118.9167 344° North 469 540 21,600 1,560 Climbing Los Angeles Center
07:59PM 35.0928 -118.9631 344° North 482 555 23,000 1,260 Climbing Los Angeles Center
08:00PM 35.2267 -119.0075 345° North 500 575 24,300 1,200 Climbing Los Angeles Center
08:01PM 35.3619 -119.0550 344° North 507 583 25,500 1,080 Climbing Los Angeles Center
08:02PM 35.4989 -119.0986 345° North 510 587 26,600 1,140 Climbing Los Angeles Center
08:03PM 35.6714 -119.1228 354° North 523 602 27,900 1,260 Climbing Los Angeles Center
08:04PM 35.8183 -119.1411 354° North 532 612 29,300 1,320 Climbing Oakland Center
08:05PM 35.9650 -119.1622 353° North 533 613 30,600 1,140 Climbing Oakland Center
08:06PM 36.1097 -119.1811 354° North 529 609 31,700 960 Climbing Oakland Center
08:07PM 36.2531 -119.1992 354° North 525 604 32,600 720 Climbing Oakland Center
08:09PM 36.5456 -119.2353 354° North 526 605 34,000 420 Climbing Salt Lake Center
08:10PM 36.6933 -119.2569 353° North 527 606 34,000  Level Salt Lake Center
08:11PM 36.8414 -119.2775 354° North 531 611 34,000 -60 Level Salt Lake Center
08:12PM 37.0131 -119.3069 352° North 533 613 33,900 -60 Descending Oakland Center
08:13PM 37.1614 -119.3256 354° North 537 618 33,900  Level Oakland Center
08:14PM 37.3089 -119.3450 354° North 538 619 33,900  Level Oakland Center
08:15PM 37.4586 -119.3675 353° North 542 624 33,900  Level Oakland Center
08:16PM 37.6169 -119.3861 355° North 537 618 34,000  Climbing Oakland Center
08:17PM 37.7669 -119.4050 354° North 541 623 34,000  Level Oakland Center
08:19PM 37.9161 -119.4264 354° North 542 624 34,000  Level Oakland Center
08:20PM 38.0653 -119.4464 354° North 539 620 34,000  Level Oakland Center
08:21PM 38.2150 -119.4678 354° North 542 624 34,000  Level Oakland Center
08:22PM 38.3642 -119.4886 354° North 543 625 34,000  Level Oakland Center
08:23PM 38.5417 -119.5133 354° North 539 620 34,000  Level Oakland Center
08:24PM 38.6933 -119.5350 354° North 542 624 34,000  Level Oakland Center
08:25PM 38.8439 -119.5572 353° North 543 625 34,000  Level Oakland Center
08:26PM 38.9931 -119.5781 354° North 540 621 34,000  Level Oakland Center
08:27PM 39.1428 -119.5994 354° North 538 619 34,000  Level Oakland Center
08:28PM 39.2925 -119.6219 353° North 538 619 34,000  Level Oakland Center
08:29PM 39.4431 -119.6425 354° North 539 620 34,000  Level Oakland Center
08:30PM 39.5908 -119.6214 North 542 624 34,000  Level Oakland Center
08:31PM 39.7342 -119.5422 23° Northeast 552 635 34,000  Level Oakland Center
08:32PM 39.8761 -119.4631 23° Northeast 551 634 34,000  Level Oakland Center
08:33PM 40.0181 -119.3831 23° Northeast 552 635 34,000  Level Oakland Center
08:34PM 40.1586 -119.3044 23° Northeast 549 632 34,000  Level Oakland Center
08:35PM 40.3275 -119.2078 24° Northeast 549 632 34,000  Level Oakland Center
08:36PM 40.4686 -119.1281 23° Northeast 549 632 34,000  Level Oakland Center
08:37PM 40.6103 -119.0461 24° Northeast 551 634 34,000  Level Oakland Center
08:38PM 40.7508 -118.9658 23° Northeast 551 634 34,000  Level Oakland Center
08:39PM 40.9192 -118.8686 24° Northeast 555 639 34,000  Level Salt Lake Center
08:40PM 41.0553 -118.7892 24° Northeast 556 640 34,000  Level Salt Lake Center
08:41PM 41.1678 -118.7231 24° Northeast 558 642 34,000  Level Oakland Center
08:42PM 41.3250 -118.6311 24° Northeast 554 638 34,000  Level Oakland Center
08:43PM 41.4622 -118.5511 24° Northeast 558 642 34,000  Level Oakland Center
08:44PM 41.6211 -118.4581 24° Northeast 557 641 34,000  Level Oakland Center
08:45PM 41.7806 -118.3608 24° Northeast 554 638 34,000 -60 Level Salt Lake Center
08:46PM 41.9164 -118.2803 24° Northeast 554 638 33,900  Descending Salt Lake Center
08:47PM 42.0728 -118.1858 24° Northeast 550 633 34,000  Climbing Salt Lake Center
08:48PM 42.2061 -118.1033 25° Northeast 549 632 34,000  Level Salt Lake Center
08:49PM 42.3628 -118.0053 25° Northeast 543 625 34,000  Level Salt Lake Center
08:50PM 42.4953 -117.9250 24° Northeast 544 626 34,000  Level Salt Lake Center
08:51PM 42.6494 -117.8356 23° Northeast 539 620 34,000  Level Salt Lake Center
08:52PM 42.7869 -117.7800 17° North 539 620 34,000  Level Salt Lake Center
08:53PM 42.9256 -117.7261 16° North 539 620 34,000  Level Salt Lake Center
08:55PM 43.0867 -117.6600 17° North 540 621 34,000  Level Salt Lake Center
08:56PM 43.2242 -117.6003 18° North 541 623 34,000  Level Salt Lake Center
08:57PM 43.3836 -117.5314 17° North 538 619 34,000  Level Salt Lake Center
08:58PM 43.5211 -117.4733 17° North 537 618 34,000  Level Salt Lake Center
08:59PM 43.6808 -117.4028 18° North 538 619 34,000  Level Salt Lake Center
09:00PM 43.8186 -117.3442 17° North 539 620 34,000  Level Salt Lake Center
09:01PM 43.9550 -117.2844 17° North 538 619 34,000  Level Salt Lake Center
09:02PM 44.1153 -117.2142 17° North 538 619 34,000  Level Salt Lake Center
09:03PM 44.2528 -117.1547 17° North 539 620 34,000  Level Salt Lake Center
09:04PM 44.4100 -117.0839 18° North 531 611 34,000  Level Salt Lake Center
09:05PM 44.5453 -117.0222 18° North 531 611 34,000  Level Salt Lake Center
09:06PM 44.6814 -116.9633 17° North 530 610 34,000  Level Salt Lake Center
09:07PM 44.8397 -116.8922 18° North 532 612 34,000  Level Salt Lake Center
09:08PM 44.9747 -116.8297 18° North 531 611 34,000  Level Salt Lake Center
09:09PM 45.1103 -116.7681 18° North 531 611 34,000  Level Seattle Center
09:10PM 45.2675 -116.6975 18° North 529 609 34,000  Level Seattle Center
09:11PM 45.4028 -116.6344 18° North 531 611 34,000  Level Seattle Center
09:12PM 45.5375 -116.5728 18° North 531 611 34,000 -60 Level Seattle Center
09:13PM 45.6694 -116.5128 18° North 530 610 33,900 -60 Descending Seattle Center
09:14PM 45.8381 -116.4336 18° North 530 610 33,900  Level Seattle Center
09:15PM 45.9783 -116.3653 19° North 534 615 33,900  Level Seattle Center
09:16PM 46.1178 -116.2983 18° North 531 611 33,900  Level Seattle Center
09:17PM 46.2564 -116.2333 18° North 527 606 33,900  Level Seattle Center
09:18PM 46.3939 -116.1664 19° North 524 603 33,900  Level Seattle Center
09:19PM 46.5311 -116.1006 18° North 521 600 33,900  Level Seattle Center
09:20PM 46.6675 -116.0344 18° North 519 597 33,900  Level Seattle Center
09:21PM 46.8036 -115.9694 18° North 518 596 33,900  Level Seattle Center
09:22PM 46.9394 -115.9033 18° North 518 596 33,900  Level Seattle Center
09:23PM 47.0753 -115.8350 19° North 519 597 33,900  Level Seattle Center
09:24PM 47.2397 -115.7553 18° North 522 601 33,900  Level Seattle Center
09:25PM 47.3714 -115.6861 20° North 525 604 33,900  Level Seattle Center
09:26PM 47.5119 -115.6214 17° North 527 606 33,900  Level Seattle Center
09:27PM 47.6550 -115.5594 16° North 532 612 33,900  Level Seattle Center
09:28PM 47.7961 -115.4925 18° North 531 611 34,000 420 Climbing Seattle Center
09:29PM 47.9333 -115.4281 17° North 527 606 34,800 420 Climbing Seattle Center
09:30PM 48.0772 -115.3647 16° North 527 606 34,900  Climbing Seattle Center
09:31PM 48.2186 -115.2994 17° North 529 609 34,900  Level Seattle Center
09:32PM 48.3589 -115.2353 17° North 526 605 34,900  Level Seattle Center
09:33PM 48.4997 -115.1697 17° North 526 605 34,900  Level Seattle Center
09:34PM 48.6392 -115.1050 17° North 525 604 34,900  Level Seattle Center
09:35PM 48.7786 -115.0392 17° North 524 603 34,900  Level Seattle Center
09:36PM 48.9181 -114.9739 17° North 524 603 34,900  Level Seattle Center
09:37PM 49.0333 -114.9167 18° North 520 598 35,000  Climbing Edmonton Center
09:38PM 49.1667 -114.8667 14° North 520 598 35,000  Level Edmonton Center
09:39PM 49.3000 -114.8000 18° North 510 587 35,000  Level Edmonton Center
09:40PM 49.4500 -114.7500 12° North 510 587 35,000  Level Edmonton Center
09:41PM 49.5833 -114.6667 22° Northeast 510 587 35,000  Level Edmonton Center
09:42PM 49.7333 -114.6167 12° North 510 587 35,000  Level Edmonton Center
09:43PM 49.8667 -114.5833 North 510 587 35,000  Level Edmonton Center
09:44PM 50.0000 -114.5000 22° Northeast 510 587 35,000  Level Edmonton Center
09:45PM 50.1333 -114.4500 14° North 510 587 35,000  Level Edmonton Center
09:46PM 50.2667 -114.4000 13° North 500 575 35,000  Level Edmonton Center
09:47PM 50.4000 -114.3167 22° Northeast 500 575 35,000  Level Edmonton Center
09:48PM 50.5333 -114.2667 13° North 500 575 35,000  Level Edmonton Center
09:49PM 50.6833 -114.2167 12° North 500 575 35,000  Level Edmonton Center
09:50PM 50.8000 -114.1667 15° North 500 575 35,000  Level Edmonton Center
09:51PM 50.9500 -114.0833 19° North 500 575 35,000  Level Edmonton Center
09:52PM 51.0833 -114.0333 13° North 510 587 35,000  Level Edmonton Center
09:53PM 51.2167 -113.9500 21° North 510 587 35,000  Level Edmonton Center
09:54PM 51.3667 -113.9000 12° North 510 587 35,000  Level Edmonton Center
09:55PM 51.4833 -113.8500 15° North 510 587 35,000  Level Edmonton Center
09:56PM 51.6333 -113.7667 19° North 500 575 35,000  Level Edmonton Center
09:57PM 51.7500 -113.7167 15° North 500 575 35,000  Level Edmonton Center
09:58PM 51.9000 -113.6500 15° North 500 575 35,000  Level Edmonton Center
09:59PM 52.0333 -113.5833 17° North 490 564 35,000  Level Edmonton Center
10:00PM 52.1667 -113.5167 17° North 490 564 35,000  Level Edmonton Center
10:01PM 52.3000 -113.4667 13° North 490 564 35,000  Level Edmonton Center
10:02PM 52.4333 -113.4000 17° North 490 564 35,000  Level Edmonton Center
10:03PM 52.5667 -113.3167 21° North 490 564 35,000  Level Edmonton Center
10:04PM 52.6833 -113.2667 15° North 490 564 35,000  Level Edmonton Center
10:05PM 52.8333 -113.2000 15° North 500 575 35,000  Level Edmonton Center
10:06PM 52.9500 -113.1500 14° North 500 575 35,000 -60 Level Edmonton Center
10:07PM 53.1000 -113.0667 18° North 500 575 34,900  Descending Edmonton Center
10:08PM 53.2167 -113.0000 19° North 490 564 35,000  Climbing Edmonton Center
10:09PM 53.3667 -112.9333 15° North 490 564 35,000  Level Edmonton Center
10:10PM 53.4833 -112.8833 14° North 490 564 35,000  Level Edmonton Center
10:11PM 53.6333 -112.8000 18° North 490 564 35,000  Level Edmonton Center
10:12PM 53.7500 -112.7333 19° North 490 564 35,000  Level Edmonton Center
10:13PM 53.8833 -112.6667 16° North 490 564 35,000 -60 Level Edmonton Center
10:14PM 54.0167 -112.6000 16° North 490 564 34,900  Descending Edmonton Center
10:15PM 54.1500 -112.5167 20° North 490 564 35,000  Climbing Edmonton Center
10:16PM 54.2833 -112.4500 16° North 480 552 35,000  Level Edmonton Center
10:17PM 54.4000 -112.3833 18° North 480 552 35,000  Level Edmonton Center
10:18PM 54.5333 -112.3333 12° North 480 552 35,000  Level Edmonton Center
10:19PM 54.6667 -112.2667 16° North 480 552 35,000  Level Edmonton Center
10:20PM 54.8000 -112.1667 23° Northeast 480 552 35,000  Level Edmonton Center
10:21PM 54.9333 -112.1000 16° North 480 552 35,000  Level Edmonton Center
10:22PM 55.0500 -112.0333 18° North 480 552 35,000  Level Edmonton Center
10:23PM 55.1667 -111.9667 18° North 470 541 35,000  Level Edmonton Center
10:24PM 55.3000 -111.9000 16° North 470 541 35,000  Level Edmonton Center
10:25PM 55.4333 -111.8333 16° North 470 541 35,000  Level Edmonton Center
10:26PM 55.5667 -111.7667 16° North 470 541 35,000  Level Edmonton Center
10:27PM 55.6833 -111.6667 26° Northeast 470 541 35,000  Level Edmonton Center
10:28PM 55.8000 -111.6000 18° North 470 541 35,000 -60 Level Edmonton Center
10:29PM 55.9500 -111.5333 14° North 470 541 34,900  Descending Edmonton Center
10:30PM 56.0667 -111.4667 18° North 470 541 35,000  Climbing Edmonton Center
10:31PM 56.2000 -111.4000 16° North 470 541 35,000  Level Edmonton Center
10:32PM 56.3167 -111.3333 18° North 470 541 35,000  Level Edmonton Center
10:33PM 56.4500 -111.2500 19° North 470 541 35,000  Level Edmonton Center
10:34PM 56.5833 -111.1833 15° North 470 541 35,000  Level Edmonton Center
10:35PM 56.7000 -111.0833 25° Northeast 470 541 35,000  Level Edmonton Center
10:36PM 56.8167 -110.9833 25° Northeast 470 541 35,000  Level Edmonton Center
10:37PM 56.9500 -110.8833 22° Northeast 470 541 35,000  Level Edmonton Center
10:38PM 57.0500 -110.7667 32° Northeast 470 541 35,000  Level Edmonton Center
10:39PM 57.1833 -110.7000 15° North 470 541 35,000  Level Edmonton Center
10:40PM 57.3000 -110.5833 28° Northeast 460 529 35,000  Level Edmonton Center
10:41PM 57.4167 -110.4833 25° Northeast 460 529 35,000  Level Edmonton Center
10:42PM 57.5333 -110.3667 28° Northeast 460 529 35,000  Level Edmonton Center
10:43PM 57.6667 -110.2667 22° Northeast 460 529 35,000  Level Edmonton Center
10:44PM 57.7833 -110.1500 28° Northeast 470 541 35,000  Level Edmonton Center
10:45PM 57.8833 -110.0667 24° Northeast 470 541 35,000  Level Edmonton Center
10:46PM 58.0167 -109.9667 22° Northeast 470 541 35,000  Level Edmonton Center
10:47PM 58.1333 -109.8500 28° Northeast 460 529 35,000  Level Edmonton Center
10:48PM 58.2333 -109.7333 32° Northeast 460 529 35,000  Level Edmonton Center
10:49PM 58.3667 -109.6500 18° North 460 529 35,000  Level Edmonton Center
10:50PM 58.4833 -109.5333 28° Northeast 460 529 35,000  Level Edmonton Center
10:51PM 58.6167 -109.4167 24° Northeast 470 541 35,000  Level Edmonton Center
10:52PM 58.7333 -109.3167 24° Northeast 470 541 35,000  Level Edmonton Center
10:53PM 58.8333 -109.1833 35° Northeast 470 541 35,000  Level Edmonton Center
10:54PM 58.9667 -109.0667 24° Northeast 470 541 35,000  Level Edmonton Center
10:55PM 59.0833 -108.9500 27° Northeast 470 541 35,000  Level Edmonton Center
10:56PM 59.2000 -108.8333 27° Northeast 470 541 35,000  Level Edmonton Center
10:57PM 59.3333 -108.7500 18° North 470 541 35,000  Level Edmonton Center
10:58PM 59.4500 -108.6333 27° Northeast 470 541 35,000  Level Edmonton Center
10:59PM 59.5500 -108.5167 31° Northeast 470 541 35,000  Level Edmonton Center
11:00PM 59.6833 -108.3833 27° Northeast 480 552 35,000  Level Edmonton Center
11:01PM 59.8000 -108.2667 27° Northeast 470 541 35,000  Level Edmonton Center
11:02PM 59.9167 -108.1500 27° Northeast 480 552 35,000  Level Edmonton Center
11:03PM 60.0500 -108.0167 27° Northeast 470 541 35,000  Level Edmonton Center
11:04PM 60.1500 -107.8833 34° Northeast 480 552 35,000  Level Edmonton Center
11:05PM 60.2667 -107.7667 26° Northeast 480 552 35,000  Level Edmonton Center
11:06PM 60.3833 -107.6333 29° Northeast 480 552 35,000  Level Edmonton Center
11:07PM 60.5167 -107.5167 23° Northeast 480 552 35,000  Level Edmonton Center
11:08PM 60.6333 -107.3833 29° Northeast 480 552 35,000  Level Edmonton Center
11:09PM 60.7500 -107.2500 29° Northeast 480 552 35,000  Level Edmonton Center
11:10PM 60.8667 -107.0833 35° Northeast 480 552 35,000  Level Edmonton Center
11:11PM 61.0000 -106.9500 26° Northeast 480 552 35,000  Level Edmonton Center
11:12PM 61.1167 -106.8167 29° Northeast 480 552 35,000  Level Edmonton Center
11:13PM 61.2333 -106.6833 29° Northeast 480 552 35,000  Level Edmonton Center
11:14PM 61.3500 -106.5500 29° Northeast 480 552 35,000  Level Edmonton Center
11:15PM 61.4833 -106.4167 26° Northeast 490 564 35,000  Level Edmonton Center
11:16PM 61.6000 -106.2833 29° Northeast 490 564 35,000  Level Edmonton Center
11:17PM 61.7167 -106.1333 31° Northeast 490 564 35,000  Level Edmonton Center
11:18PM 61.8333 -106.0000 28° Northeast 490 564 35,000  Level Edmonton Center
11:19PM 61.9500 -105.8500 31° Northeast 490 564 35,000  Level Edmonton Center
11:20PM 62.0833 -105.7167 25° Northeast 480 552 35,000  Level Edmonton Center
11:21PM 62.2000 -105.5667 31° Northeast 490 564 35,000  Level Edmonton Center
11:22PM 62.3167 -105.4000 34° Northeast 480 552 35,000  Level Edmonton Center
11:23PM 62.4333 -105.2500 31° Northeast 480 552 35,000  Level Edmonton Center
11:24PM 62.5500 -105.1000 31° Northeast 480 552 35,000  Level Edmonton Center
11:25PM 62.6667 -104.9500 31° Northeast 480 552 35,000  Level Edmonton Center
11:26PM 62.7833 -104.8000 30° Northeast 480 552 35,000  Level Edmonton Center
11:28PM 62.9414 -104.6584 22° Northeast  Level FlightAware Approximate
11:35PM 63.8242 -103.8360 22° Northeast  Level FlightAware Approximate
11:36PM 63.9499 -103.7143 23° Northeast  Level FlightAware Approximate
11:37PM 64.0755 -103.5916 23° Northeast  Level FlightAware Approximate
11:38PM 64.2010 -103.4677 23° Northeast  Level FlightAware Approximate
11:39PM 64.3264 -103.3426 23° Northeast  Level FlightAware Approximate
11:40PM 64.4517 -103.2165 23° Northeast  Level FlightAware Approximate
11:41PM 64.5769 -103.0891 24° Northeast  Level FlightAware Approximate
11:42PM 64.7020 -102.9606 24° Northeast  Level FlightAware Approximate
11:43PM 64.8269 -102.8309 24° Northeast  Level FlightAware Approximate
11:44PM 64.9518 -102.7000 24° Northeast  Level FlightAware Approximate
11:45PM 65.0765 -102.5679 24° Northeast  Level FlightAware Approximate
11:46PM 65.2011 -102.4345 24° Northeast  Level FlightAware Approximate
11:47PM 65.3256 -102.2999 24° Northeast  Level FlightAware Approximate
11:48PM 65.4500 -102.1640 24° Northeast  Level FlightAware Approximate
11:49PM 65.5742 -102.0268 25° Northeast  Level FlightAware Approximate
11:50PM 65.6948 -101.8709 28° Northeast  Level FlightAware Approximate
11:51PM 65.8149 -101.7122 28° Northeast  Level FlightAware Approximate
11:52PM 65.9348 -101.5520 29° Northeast  Level FlightAware Approximate
11:53PM 66.0546 -101.3903 29° Northeast  Level FlightAware Approximate
11:54PM 66.1742 -101.2271 29° Northeast  Level FlightAware Approximate
11:55PM 66.2936 -101.0623 29° Northeast  Level FlightAware Approximate
11:56PM 66.4129 -100.8960 29° Northeast  Level FlightAware Approximate
11:57PM 66.5320 -100.7281 29° Northeast  Level FlightAware Approximate
11:58PM 66.6508 -100.5585 29° Northeast  Level FlightAware Approximate
11:59PM 66.7696 -100.3874 30° Northeast  Level FlightAware Approximate
12:00AM 66.8881 -100.2145 30° Northeast  Level FlightAware Approximate
12:01AM 67.0064 -100.0400 30° Northeast  Level FlightAware Approximate
12:02AM 67.1243 -99.8625 30° Northeast  Level FlightAware Approximate
12:03AM 67.2418 -99.6828 31° Northeast  Level FlightAware Approximate
12:04AM 67.3592 -99.5014 31° Northeast  Level FlightAware Approximate
12:05AM 67.4763 -99.3182 31° Northeast  Level FlightAware Approximate
12:06AM 67.5933 -99.1332 31° Northeast  Level FlightAware Approximate
12:07AM 67.7100 -98.9463 31° Northeast  Level FlightAware Approximate
12:08AM 67.8265 -98.7576 31° Northeast  Level FlightAware Approximate
12:09AM 67.9428 -98.5670 32° Northeast  Level FlightAware Approximate
12:10AM 68.0589 -98.3745 32° Northeast  Level FlightAware Approximate
12:11AM 68.1747 -98.1800 32° Northeast  Level FlightAware Approximate
12:12AM 68.2903 -97.9836 32° Northeast  Level FlightAware Approximate
12:13AM 68.4057 -97.7851 32° Northeast  Level FlightAware Approximate
12:14AM 68.5208 -97.5847 32° Northeast  Level FlightAware Approximate
12:15AM 68.6357 -97.3821 33° Northeast  Level FlightAware Approximate
12:16AM 68.7504 -97.1775 33° Northeast  Level FlightAware Approximate
12:17AM 68.8648 -96.9708 33° Northeast  Level FlightAware Approximate
12:18AM 68.9789 -96.7619 33° Northeast  Level FlightAware Approximate
12:19AM 69.0928 -96.5509 33° Northeast  Level FlightAware Approximate
12:20AM 69.2064 -96.3376 34° Northeast  Level FlightAware Approximate
12:21AM 69.3198 -96.1222 34° Northeast  Level FlightAware Approximate
12:22AM 69.4329 -95.9044 34° Northeast  Level FlightAware Approximate
12:23AM 69.5457 -95.6844 34° Northeast  Level FlightAware Approximate
12:24AM 69.6582 -95.4620 34° Northeast  Level FlightAware Approximate
12:25AM 69.7705 -95.2372 35° Northeast  Level FlightAware Approximate
12:26AM 69.8825 -95.0101 35° Northeast  Level FlightAware Approximate
12:27AM 69.9941 -94.7805 35° Northeast  Level FlightAware Approximate
12:28AM 70.1055 -94.5484 35° Northeast  Level FlightAware Approximate
12:29AM 70.2166 -94.3139 36° Northeast  Level FlightAware Approximate
12:30AM 70.3273 -94.0768 36° Northeast  Level FlightAware Approximate
12:31AM 70.4378 -93.8371 36° Northeast  Level FlightAware Approximate
12:32AM 70.5479 -93.5948 36° Northeast  Level FlightAware Approximate
12:33AM 70.6577 -93.3499 36° Northeast  Level FlightAware Approximate
12:34AM 70.7672 -93.1023 37° Northeast  Level FlightAware Approximate
12:35AM 70.8763 -92.8520 37° Northeast  Level FlightAware Approximate
12:36AM 70.9851 -92.5989 37° Northeast  Level FlightAware Approximate
12:37AM 71.0935 -92.3430 37° Northeast  Level FlightAware Approximate
12:38AM 71.2016 -92.0842 38° Northeast  Level FlightAware Approximate
12:39AM 71.3093 -91.8226 38° Northeast  Level FlightAware Approximate
12:40AM 71.4167 -91.5581 38° Northeast  Level FlightAware Approximate
12:41AM 71.5237 -91.2906 38° Northeast  Level FlightAware Approximate
12:42AM 71.6303 -91.0201 39° Northeast  Level FlightAware Approximate
12:43AM 71.7365 -90.7466 39° Northeast  Level FlightAware Approximate
12:44AM 71.8423 -90.4699 39° Northeast  Level FlightAware Approximate
12:45AM 71.9478 -90.1902 39° Northeast  Level FlightAware Approximate
12:46AM 72.0525 -89.9063 40° Northeast  Level FlightAware Approximate
12:47AM 72.1565 -89.6181 40° Northeast  Level FlightAware Approximate
12:48AM 72.2602 -89.3266 41° Northeast  Level FlightAware Approximate
12:49AM 72.3634 -89.0318 41° Northeast  Level FlightAware Approximate
12:50AM 72.4661 -88.7337 41° Northeast  Level FlightAware Approximate
12:51AM 72.5689 -88.4339 41° Northeast  Level FlightAware Approximate
12:52AM 72.6713 -88.1310 41° Northeast  Level FlightAware Approximate
12:53AM 72.7733 -87.8246 42° Northeast  Level FlightAware Approximate
12:54AM 72.8747 -87.5147 42° Northeast  Level FlightAware Approximate
12:55AM 72.9758 -87.2013 42° Northeast  Level FlightAware Approximate
12:56AM 73.0763 -86.8842 42° Northeast  Level FlightAware Approximate
12:57AM 73.1763 -86.5634 43° Northeast  Level FlightAware Approximate
12:58AM 73.2758 -86.2389 43° Northeast  Level FlightAware Approximate
12:59AM 73.3748 -85.9107 43° Northeast  Level FlightAware Approximate
01:00AM 73.4733 -85.5787 44° Northeast  Level FlightAware Approximate
01:01AM 73.5712 -85.2427 44° Northeast  Level FlightAware Approximate
01:02AM 73.6686 -84.9029 44° Northeast  Level FlightAware Approximate
01:03AM 73.7655 -84.5592 45° Northeast  Level FlightAware Approximate
01:04AM 73.8618 -84.2114 45° Northeast  Level FlightAware Approximate
01:05AM 73.9575 -83.8596 45° Northeast  Level FlightAware Approximate
01:06AM 74.0527 -83.5036 46° Northeast  Level FlightAware Approximate
01:07AM 74.1472 -83.1436 46° Northeast  Level FlightAware Approximate
01:08AM 74.2412 -82.7793 46° Northeast  Level FlightAware Approximate
01:09AM 74.3345 -82.4108 47° Northeast  Level FlightAware Approximate
01:10AM 74.4273 -82.0380 47° Northeast  Level FlightAware Approximate
01:11AM 74.5194 -81.6609 47° Northeast  Level FlightAware Approximate
01:12AM 74.6108 -81.2793 48° Northeast  Level FlightAware Approximate
01:13AM 74.7016 -80.8933 48° Northeast  Level FlightAware Approximate
01:14AM 74.7917 -80.5029 49° Northeast  Level FlightAware Approximate
01:15AM 74.8811 -80.1079 49° Northeast  Level FlightAware Approximate
01:16AM 74.9699 -79.7084 49° Northeast  Level FlightAware Approximate
01:17AM 75.0579 -79.3042 50° Northeast  Level FlightAware Approximate
01:18AM 75.1452 -78.8954 50° Northeast  Level FlightAware Approximate
01:19AM 75.2318 -78.4819 50° Northeast  Level FlightAware Approximate
01:20AM 75.3176 -78.0636 51° Northeast  Level FlightAware Approximate
01:21AM 75.4027 -77.6405 51° Northeast  Level FlightAware Approximate
01:22AM 75.4870 -77.2126 52° Northeast  Level FlightAware Approximate
01:23AM 75.5706 -76.7799 52° Northeast  Level FlightAware Approximate
01:24AM 75.6533 -76.3422 53° Northeast  Level FlightAware Approximate
01:25AM 75.7352 -75.8996 53° Northeast  Level FlightAware Approximate
01:26AM 75.8163 -75.4520 53° Northeast  Level FlightAware Approximate
01:27AM 75.9021 -75.0166 51° Northeast  Level FlightAware Approximate
01:28AM 75.9872 -74.5762 51° Northeast  Level FlightAware Approximate
01:29AM 76.0714 -74.1305 52° Northeast  Level FlightAware Approximate
01:30AM 76.1548 -73.6795 52° Northeast  Level FlightAware Approximate
01:31AM 76.2374 -73.2232 53° Northeast  Level FlightAware Approximate
01:32AM 76.3191 -72.7615 53° Northeast  Level FlightAware Approximate
01:33AM 76.3999 -72.2944 53° Northeast  Level FlightAware Approximate
01:34AM 76.4799 -71.8218 54° Northeast  Level FlightAware Approximate
01:35AM 76.5590 -71.3438 54° Northeast  Level FlightAware Approximate
01:36AM 76.6372 -70.8602 55° Northeast  Level FlightAware Approximate
01:37AM 76.7144 -70.3711 55° Northeast  Level FlightAware Approximate
01:38AM 76.7907 -69.8764 56° Northeast  Level FlightAware Approximate
01:39AM 76.8661 -69.3761 56° Northeast  Level FlightAware Approximate
01:40AM 76.9404 -68.8702 57° Northeast  Level FlightAware Approximate
01:41AM 77.0138 -68.3586 57° Northeast  Level FlightAware Approximate
01:42AM 77.0861 -67.8413 58° Northeast  Level FlightAware Approximate
01:43AM 77.1575 -67.3184 58° Northeast  Level FlightAware Approximate
01:44AM 77.2282 -66.7908 59° Northeast  Level FlightAware Approximate
01:45AM 77.2984 -66.2593 59° Northeast  Level FlightAware Approximate
01:46AM 77.3676 -65.7219 59° Northeast  Level FlightAware Approximate
01:47AM 77.4358 -65.1788 60° Northeast  Level FlightAware Approximate
01:48AM 77.5028 -64.6300 60° Northeast  Level FlightAware Approximate
01:49AM 77.5686 -64.0753 61° Northeast  Level FlightAware Approximate
01:50AM 77.6334 -63.5149 61° Northeast  Level FlightAware Approximate
01:51AM 77.6970 -62.9487 62° Northeast  Level FlightAware Approximate
01:52AM 77.7594 -62.3768 63° Northeast  Level FlightAware Approximate
01:53AM 77.8206 -61.7991 63° Northeast  Level FlightAware Approximate
01:54AM 77.8806 -61.2158 64° Northeast  Level FlightAware Approximate
01:55AM 77.9394 -60.6268 64° Northeast  Level FlightAware Approximate
01:56AM 77.9969 -60.0322 65° Northeast  Level FlightAware Approximate
01:57AM 78.0502 -59.4257 67° East  Level FlightAware Approximate
01:58AM 78.1019 -58.8136 67° East  Level FlightAware Approximate
01:59AM 78.1523 -58.1963 68° East  Level FlightAware Approximate
02:00AM 78.2014 -57.5738 69° East  Level FlightAware Approximate
02:01AM 78.2491 -56.9463 69° East  Level FlightAware Approximate
02:02AM 78.2954 -56.3138 70° East  Level FlightAware Approximate
02:03AM 78.3403 -55.6764 70° East  Level FlightAware Approximate
02:04AM 78.3838 -55.0343 71° East  Level FlightAware Approximate
02:05AM 78.4259 -54.3875 72° East  Level FlightAware Approximate
02:06AM 78.4665 -53.7361 72° East  Level FlightAware Approximate
02:07AM 78.5078 -53.0835 72° East  Level FlightAware Approximate
02:08AM 78.5477 -52.4263 73° East  Level FlightAware Approximate
02:09AM 78.5861 -51.7648 73° East  Level FlightAware Approximate
02:10AM 78.6230 -51.0989 74° East  Level FlightAware Approximate
02:11AM 78.6584 -50.4288 75° East  Level FlightAware Approximate
02:12AM 78.6923 -49.7546 75° East  Level FlightAware Approximate
02:13AM 78.7246 -49.0765 76° East  Level FlightAware Approximate
02:14AM 78.7554 -48.3947 77° East  Level FlightAware Approximate
02:15AM 78.7847 -47.7093 77° East  Level FlightAware Approximate
02:16AM 78.8124 -47.0205 78° East  Level FlightAware Approximate
02:17AM 78.8384 -46.3283 79° East  Level FlightAware Approximate
02:18AM 78.8629 -45.6331 79° East  Level FlightAware Approximate
02:19AM 78.8858 -44.9349 80° East  Level FlightAware Approximate
02:20AM 78.9071 -44.2340 81° East  Level FlightAware Approximate
02:21AM 78.9267 -43.5305 81° East  Level FlightAware Approximate
02:22AM 78.9447 -42.8247 82° East  Level FlightAware Approximate
02:23AM 78.9611 -42.1167 83° East  Level FlightAware Approximate
02:24AM 78.9758 -41.4067 83° East  Level FlightAware Approximate
02:25AM 78.9889 -40.6950 84° East  Level FlightAware Approximate
02:26AM 79.0006 -39.9819 80° East  Level FlightAware Approximate
02:27AM 79.0230 -39.2748 80° East  Level FlightAware Approximate
02:28AM 79.0439 -38.5648 81° East  Level FlightAware Approximate
02:29AM 79.0630 -37.8523 82° East  Level FlightAware Approximate
02:30AM 79.0805 -37.1375 82° East  Level FlightAware Approximate
02:31AM 79.0964 -36.4205 83° East  Level FlightAware Approximate
02:32AM 79.1105 -35.7015 84° East  Level FlightAware Approximate
02:33AM 79.1230 -34.9808 84° East  Level FlightAware Approximate
02:34AM 79.1338 -34.2585 85° East  Level FlightAware Approximate
02:35AM 79.1430 -33.5350 86° East  Level FlightAware Approximate
02:36AM 79.1504 -32.8104 87° East  Level FlightAware Approximate
02:37AM 79.1561 -32.0849 87° East  Level FlightAware Approximate
02:38AM 79.1601 -31.3587 88° East  Level FlightAware Approximate
02:39AM 79.1625 -30.6321 89° East  Level FlightAware Approximate
02:40AM 79.1631 -29.9054 89° East  Level FlightAware Approximate
02:41AM 79.1620 -29.1786 90° East  Level FlightAware Approximate
02:42AM 79.1593 -28.4521 91° East  Level FlightAware Approximate
02:43AM 79.1548 -27.7261 92° East  Level FlightAware Approximate
02:44AM 79.1486 -27.0008 92° East  Level FlightAware Approximate
02:45AM 79.1407 -26.2765 93° East  Level FlightAware Approximate
02:46AM 79.1312 -25.5532 94° East  Level FlightAware Approximate
02:47AM 79.1199 -24.8314 94° East  Level FlightAware Approximate
02:48AM 79.1070 -24.1111 95° East  Level FlightAware Approximate
02:49AM 79.0924 -23.3926 96° East  Level FlightAware Approximate
02:50AM 79.0761 -22.6761 96° East  Level FlightAware Approximate
02:51AM 79.0582 -21.9619 97° East  Level FlightAware Approximate
02:52AM 79.0386 -21.2500 98° East  Level FlightAware Approximate
02:53AM 79.0173 -20.5408 99° East  Level FlightAware Approximate
02:54AM 78.9976 -19.8323 94° East  Level FlightAware Approximate
02:55AM 78.9866 -19.1191 94° East  Level FlightAware Approximate
02:56AM 78.9738 -18.4073 95° East  Level FlightAware Approximate
02:57AM 78.9594 -17.6973 96° East  Level FlightAware Approximate
02:58AM 78.9434 -16.9892 96° East  Level FlightAware Approximate
02:59AM 78.9257 -16.2832 97° East  Level FlightAware Approximate
03:00AM 78.9063 -15.5796 98° East  Level FlightAware Approximate
03:01AM 78.8854 -14.8784 98° East  Level FlightAware Approximate
03:02AM 78.8628 -14.1800 99° East  Level FlightAware Approximate
03:03AM 78.8386 -13.4845 100° East  Level FlightAware Approximate
03:04AM 78.8129 -12.7920 101° East  Level FlightAware Approximate
03:05AM 78.7855 -12.1028 101° East  Level FlightAware Approximate
03:06AM 78.7566 -11.4170 102° East  Level FlightAware Approximate
03:07AM 78.7261 -10.7347 103° East  Level FlightAware Approximate
03:08AM 78.6941 -10.0562 103° East  Level FlightAware Approximate
03:09AM 78.6605 -9.3815 104° East  Level FlightAware Approximate
03:10AM 78.6254 -8.7109 105° East  Level FlightAware Approximate
03:11AM 78.5888 -8.0444 105° East  Level FlightAware Approximate
03:12AM 78.5507 -7.3823 106° East  Level FlightAware Approximate
03:13AM 78.5111 -6.7245 107° East  Level FlightAware Approximate
03:14AM 78.4700 -6.0713 107° East  Level FlightAware Approximate
03:15AM 78.4275 -5.4227 108° East  Level FlightAware Approximate
03:16AM 78.3836 -4.7789 108° East  Level FlightAware Approximate
03:17AM 78.3382 -4.1399 109° East  Level FlightAware Approximate
03:18AM 78.2915 -3.5060 110° East  Level FlightAware Approximate
03:19AM 78.2434 -2.8770 110° East  Level FlightAware Approximate
03:20AM 78.1939 -2.2532 111° Southeast  Level FlightAware Approximate
03:21AM 78.1431 -1.6346 112° Southeast  Level FlightAware Approximate
03:22AM 78.0909 -1.0213 112° Southeast  Level FlightAware Approximate
03:23AM 78.0374 -0.4133 113° Southeast  Level FlightAware Approximate
03:24AM 77.9737 0.1639 128° Southeast  Level FlightAware Approximate
03:25AM 77.8897 0.6794 128° Southeast  Level FlightAware Approximate
03:26AM 77.8048 1.1878 128° Southeast  Level FlightAware Approximate
03:27AM 77.7189 1.6893 129° Southeast  Level FlightAware Approximate
03:28AM 77.6321 2.1839 129° Southeast  Level FlightAware Approximate
03:29AM 77.5445 2.6716 130° Southeast  Level FlightAware Approximate
03:30AM 77.4560 3.1527 130° Southeast  Level FlightAware Approximate
03:31AM 77.3666 3.6270 131° Southeast  Level FlightAware Approximate
03:32AM 77.2764 4.0948 131° Southeast  Level FlightAware Approximate
03:33AM 77.1854 4.5560 132° Southeast  Level FlightAware Approximate
03:34AM 77.0937 5.0109 132° Southeast  Level FlightAware Approximate
03:35AM 77.0011 5.4594 132° Southeast  Level FlightAware Approximate
03:36AM 76.9078 5.9016 133° Southeast  Level FlightAware Approximate
03:37AM 76.8137 6.3377 133° Southeast  Level FlightAware Approximate
03:38AM 76.7189 6.7676 134° Southeast  Level FlightAware Approximate
03:39AM 76.6234 7.1916 134° Southeast  Level FlightAware Approximate
03:40AM 76.5273 7.6096 135° Southeast  Level FlightAware Approximate
03:41AM 76.4304 8.0218 135° Southeast  Level FlightAware Approximate
03:42AM 76.3328 8.4283 135° Southeast  Level FlightAware Approximate
03:43AM 76.2346 8.8291 136° Southeast  Level FlightAware Approximate
03:44AM 76.1358 9.2243 136° Southeast  Level FlightAware Approximate
03:45AM 76.0364 9.6139 137° Southeast  Level FlightAware Approximate
03:46AM 75.9363 9.9982 137° Southeast  Level FlightAware Approximate
03:47AM 75.8356 10.3771 137° Southeast  Level FlightAware Approximate
03:48AM 75.7344 10.7508 138° Southeast  Level FlightAware Approximate
03:49AM 75.6325 11.1193 138° Southeast  Level FlightAware Approximate
03:50AM 75.5302 11.4827 138° Southeast  Level FlightAware Approximate
03:51AM 75.4272 11.8411 139° Southeast  Level FlightAware Approximate
03:52AM 75.3237 12.1946 139° Southeast  Level FlightAware Approximate
03:53AM 75.2197 12.5432 139° Southeast  Level FlightAware Approximate
03:54AM 75.1152 12.8871 140° Southeast  Level FlightAware Approximate
03:55AM 75.0102 13.2262 140° Southeast  Level FlightAware Approximate
03:56AM 74.9046 13.5607 140° Southeast  Level FlightAware Approximate
03:57AM 74.7986 13.8907 141° Southeast  Level FlightAware Approximate
03:58AM 74.6922 14.2162 141° Southeast  Level FlightAware Approximate
03:59AM 74.5852 14.5373 141° Southeast  Level FlightAware Approximate
04:00AM 74.4778 14.8540 142° Southeast  Level FlightAware Approximate
04:01AM 74.3700 15.1665 142° Southeast  Level FlightAware Approximate
04:02AM 74.2617 15.4749 142° Southeast  Level FlightAware Approximate
04:03AM 74.1530 15.7791 143° Southeast  Level FlightAware Approximate
04:04AM 74.0438 16.0793 143° Southeast  Level FlightAware Approximate
04:05AM 73.9343 16.3754 143° Southeast  Level FlightAware Approximate
04:06AM 73.8244 16.6679 144° Southeast  Level FlightAware Approximate
04:07AM 73.7143 16.9572 144° Southeast  Level FlightAware Approximate
04:08AM 73.6037 17.2427 144° Southeast  Level FlightAware Approximate
04:09AM 73.4928 17.5245 144° Southeast  Level FlightAware Approximate
04:10AM 73.3815 17.8027 144° Southeast  Level FlightAware Approximate
04:11AM 73.2699 18.0772 145° Southeast  Level FlightAware Approximate
04:12AM 73.1579 18.3482 145° Southeast  Level FlightAware Approximate
04:13AM 73.0455 18.6157 145° Southeast  Level FlightAware Approximate
04:14AM 72.9328 18.8798 145° Southeast  Level FlightAware Approximate
04:15AM 72.8197 19.1406 146° Southeast  Level FlightAware Approximate
04:16AM 72.7064 19.3980 146° Southeast  Level FlightAware Approximate
04:17AM 72.5927 19.6521 146° Southeast  Level FlightAware Approximate
04:18AM 72.4786 19.9031 146° Southeast  Level FlightAware Approximate
04:19AM 72.3643 20.1509 147° Southeast  Level FlightAware Approximate
04:20AM 72.2497 20.3956 147° Southeast  Level FlightAware Approximate
04:21AM 72.1347 20.6373 147° Southeast  Level FlightAware Approximate
04:22AM 72.0195 20.8759 147° Southeast  Level FlightAware Approximate
04:23AM 71.9040 21.1117 148° Southeast  Level FlightAware Approximate
04:24AM 71.7882 21.3445 148° Southeast  Level FlightAware Approximate
04:25AM 71.6721 21.5745 148° Southeast  Level FlightAware Approximate
04:25AM 72.2550 24.3480 149° Southeast 504 580 37,000  Level FlightAware
04:26AM 71.5557 21.8017 148° Southeast  Level FlightAware Approximate
04:27AM 71.4391 22.0261 148° Southeast  Level FlightAware Approximate
04:28AM 71.3222 22.2479 149° Southeast  Level FlightAware Approximate
04:29AM 71.2051 22.4669 149° Southeast  Level FlightAware Approximate
04:29AM 71.8340 25.3270 144° Southeast 510 587 37,000  Level FlightAware
04:30AM 71.6960 25.6350 145° Southeast 512 589 37,000  Level FlightAware
04:31AM 71.5480 25.9600 145° Southeast 513 590 37,000  Level FlightAware
04:33AM 71.4100 26.2570 146° Southeast 513 590 37,000  Level FlightAware
04:35AM 71.1631 26.5879 157° South  Level Estimated
04:35AM 71.1220 26.8600 157° South 521 600 37,000  Level FlightAware
04:36AM 70.9720 27.1660 146° Southeast 521 600 37,000  Level FlightAware
04:37AM 70.8320 27.4470 147° Southeast 518 596 37,000  Level FlightAware
04:39AM 70.6810 27.7450 147° Southeast 517 595 37,000  Level FlightAware
04:39AM 70.5900 27.9210 147° Southeast 517 595 37,000  Level FlightAware
04:40AM 70.5100 28.0750 147° Southeast 517 595 37,000  Level FlightAware
04:41AM 70.4190 28.2480 147° Southeast 516 594 37,000  Level FlightAware
04:41AM 70.3390 28.3990 148° Southeast 516 594 37,000  Level FlightAware
04:42AM 70.2580 28.5490 148° Southeast 516 594 37,000  Level FlightAware
04:43AM 70.1680 28.7150 148° Southeast 513 590 37,000  Level FlightAware
04:44AM 70.0880 28.8620 148° Southeast 512 589 37,000  Level FlightAware
04:44AM 70.0080 29.0070 148° Southeast 511 588 37,000  Level FlightAware
04:45AM 69.9180 29.1680 148° Southeast 510 587 37,000  Level FlightAware
04:46AM 69.8360 29.3130 149° Southeast 510 587 37,000  Level FlightAware
04:46AM 69.7470 29.4690 149° Southeast 509 586 37,000  Level FlightAware
04:47AM 69.6660 29.6100 149° Southeast 508 585 37,000  Level FlightAware
04:48AM 69.5760 29.7650 149° Southeast 507 583 37,000  Level FlightAware
04:48AM 69.4980 29.9000 149° Southeast 506 582 37,000  Level FlightAware
04:49AM 69.4180 30.0430 148° Southeast 509 586 37,000  Level FlightAware
04:50AM 69.3620 30.1630 143° Southeast 512 589 37,000  Level FlightAware
04:50AM 69.2890 30.3270 142° Southeast 513 590 37,000  Level FlightAware
04:51AM 69.2200 30.4810 142° Southeast 513 590 37,000  Level FlightAware
04:52AM 69.1250 30.6910 142° Southeast 514 592 37,000  Level FlightAware
04:52AM 69.0480 30.8610 142° Southeast 515 593 37,000  Level FlightAware
04:53AM 68.9710 31.0330 141° Southeast 516 594 37,000  Level FlightAware
04:54AM 68.9080 31.1750 141° Southeast 516 594 37,000  Level FlightAware
04:54AM 68.8450 31.3170 141° Southeast 516 594 37,000  Level FlightAware
04:55AM 68.7660 31.4930 141° Southeast 516 594 37,000  Level FlightAware
04:56AM 68.7030 31.6340 141° Southeast 516 594 37,000  Level FlightAware
04:57AM 68.6400 31.7750 141° Southeast 516 594 37,000  Level FlightAware
04:57AM 68.5770 31.9150 141° Southeast 516 594 37,000  Level FlightAware
04:58AM 68.5140 32.0540 141° Southeast 516 594 37,000  Level FlightAware
04:59AM 68.4500 32.1930 141° Southeast 516 594 37,000  Level FlightAware
04:59AM 68.3720 32.3670 141° Southeast 516 594 37,000  Level FlightAware
05:00AM 68.3090 32.5050 141° Southeast 516 594 37,000  Level FlightAware
05:01AM 68.2450 32.6430 141° Southeast 516 594 37,000  Level FlightAware
05:01AM 68.1820 32.7810 141° Southeast 516 594 37,000  Level FlightAware
05:02AM 68.1190 32.9180 141° Southeast 516 594 37,000  Level FlightAware
05:05AM 67.8012 33.1083 167° South  Level Estimated
05:05AM 67.4150 32.8130 167° South 37,000  Level FlightAware
05:06AM 67.6679 33.1867 167° South  Level Estimated
05:06AM 67.3330 32.8760 164° South 499 574 37,000  Level FlightAware
05:07AM 67.1870 32.9880 163° South 499 574 37,000  Level FlightAware
05:08AM 67.0470 33.0900 164° South 489 563 37,000  Level FlightAware
05:09AM 66.9340 33.1720 164° South 489 563 37,000  Level FlightAware
05:10AM 66.8350 33.2430 164° South 486 559 37,000  Level FlightAware
05:10AM 66.7460 33.3070 164° South 486 559 37,000  Level FlightAware
05:11AM 66.6590 33.3690 164° South 485 558 37,000  Level FlightAware
05:12AM 66.5370 33.4550 164° South 486 559 37,000  Level FlightAware
05:13AM 66.4460 33.5180 165° South 485 558 37,000  Level FlightAware
05:13AM 66.3860 33.5600 164° South 486 559 37,000  Level FlightAware
05:14AM 66.2970 33.6230 164° South 486 559 37,000  Level FlightAware
05:15AM 66.2240 33.6760 164° South 486 559 37,000  Level FlightAware
05:15AM 66.1510 33.7280 164° South 486 559 37,000  Level FlightAware
05:16AM 66.0770 33.7800 164° South 486 559 37,000  Level FlightAware
05:17AM 65.9850 33.8450 164° South 486 559 37,000  Level FlightAware
05:18AM 65.9120 33.8960 164° South 486 559 37,000  Level FlightAware
05:18AM 65.8380 33.9480 164° South 486 559 37,000  Level FlightAware
05:19AM 65.7650 33.9990 164° South 486 559 37,000  Level FlightAware
05:20AM 65.6910 34.0510 164° South 486 559 37,000  Level FlightAware
05:20AM 65.5990 34.1140 164° South 486 559 37,000  Level FlightAware
05:21AM 65.5260 34.1650 164° South 486 559 37,000  Level FlightAware
05:22AM 65.4520 34.2160 164° South 486 559 37,000  Level FlightAware
05:22AM 65.3790 34.2670 164° South 486 559 37,000  Level FlightAware
05:23AM 65.3050 34.3170 164° South 486 559 37,000  Level FlightAware
05:25AM 64.8420 34.5750 167° South 501 577 37,000  Level FlightAware
05:25AM 64.7500 34.6470 162° South 500 575 37,000  Level FlightAware
05:26AM 64.6330 34.7390 161° South 499 574 37,000  Level FlightAware
05:27AM 64.5460 34.8060 162° South 499 574 37,000  Level FlightAware
05:28AM 64.4210 34.9010 162° South 499 574 37,000  Level FlightAware
05:29AM 64.3100 34.9840 162° South 499 574 37,000  Level FlightAware
05:29AM 64.2220 35.0500 162° South 499 574 37,000  Level FlightAware
05:30AM 64.1230 35.1240 162° South 498 573 37,000  Level FlightAware
05:31AM 64.0200 35.1990 162° South 498 573 37,000  Level FlightAware
05:32AM 63.9350 35.2620 162° South 496 571 37,000  Level FlightAware
05:32AM 63.8360 35.3340 162° South 496 571 37,000  Level FlightAware
05:33AM 63.7470 35.3980 162° South 498 573 37,000  Level FlightAware
05:34AM 63.6670 35.4550 162° South 498 573 37,000  Level FlightAware
05:34AM 63.5610 35.5300 163° South 497 572 37,000  Level FlightAware
05:35AM 63.4750 35.5900 163° South 496 571 37,000  Level FlightAware
05:36AM 63.3780 35.6590 162° South 496 571 37,000  Level FlightAware
05:37AM 63.2890 35.7200 163° South 496 571 37,000  Level FlightAware
05:37AM 63.2150 35.7710 163° South 496 571 37,000  Level FlightAware
05:38AM 63.1250 35.8340 162° South 497 572 37,000  Level FlightAware
05:39AM 62.9940 35.9240 163° South 498 573 37,000  Level FlightAware
05:39AM 62.9080 35.9820 163° South 496 571 37,000  Level FlightAware
05:40AM 62.8190 36.0420 163° South 494 568 37,000  Level FlightAware
05:41AM 62.7480 36.0900 163° South 493 567 37,000  Level FlightAware
05:42AM 62.5490 36.2230 163° South 493 567 37,000  Level FlightAware
05:43AM 62.4550 36.2840 163° South 493 567 37,000  Level FlightAware
05:44AM 62.3560 36.3490 163° South 495 570 37,000  Level FlightAware
05:45AM 62.2520 36.4170 163° South 495 570 37,000  Level FlightAware
05:45AM 62.1770 36.4660 163° South 495 570 37,000  Level FlightAware
05:46AM 62.0330 36.5580 163° South 498 573 37,000  Level FlightAware
05:47AM 61.9420 36.6160 163° South 499 574 37,000  Level FlightAware
05:48AM 61.8670 36.6650 163° South 499 574 37,000  Level FlightAware
05:48AM 61.7920 36.7130 163° South 499 574 37,000  Level FlightAware
05:49AM 61.7170 36.7620 163° South 499 574 37,000  Level FlightAware
05:49AM 61.9930 36.5830 343° North 37,000  Level FlightAware
05:52AM 61.6468 36.6665 173° South  Level Estimated
05:53AM 61.5110 36.6987 174° South  Level Estimated
05:54AM 61.3752 36.7306 174° South  Level Estimated
05:55AM 61.2394 36.7623 174° South  Level Estimated
05:56AM 61.1036 36.7937 174° South  Level Estimated
05:57AM 60.9678 36.8248 174° South  Level Estimated
05:58AM 60.8320 36.8556 174° South  Level Estimated
05:59AM 60.6962 36.8862 174° South  Level Estimated
06:00AM 60.5603 36.9166 174° South  Level Estimated
06:01AM 60.4245 36.9466 174° South  Level Estimated
06:02AM 60.2886 36.9765 174° South  Level Estimated
06:02AM 59.9230 37.7940 174° South 515 593 37,000  Level FlightAware
06:03AM 59.8010 37.8370 170° South 514 592 37,000  Level FlightAware
06:03AM 59.6920 37.8750 170° South 512 589 37,000 -240 Level FlightAware
06:04AM 59.5540 37.9240 170° South 516 594 36,700 -420 Descending FlightAware
06:05AM 59.4600 37.9570 170° South 512 589 36,400 -540 Descending FlightAware
06:06AM 59.3550 37.9930 170° South 506 582 36,000 -300 Descending FlightAware
06:06AM 59.2630 38.0150 173° South 497 572 36,000  Level FlightAware
06:07AM 59.1610 38.0130 181° South 492 566 36,000  Level FlightAware
06:08AM 59.0720 38.0070 182° South 490 564 36,000  Level FlightAware
06:08AM 58.9820 38.0000 182° South 491 565 36,000  Level FlightAware
06:09AM 58.8790 37.9930 182° South 493 567 36,000  Level FlightAware
06:10AM 58.7870 37.9870 182° South 495 570 36,000  Level FlightAware
06:11AM 58.6870 37.9780 183° South 495 570 36,000  Level FlightAware
06:11AM 58.5950 37.9640 185° South 495 570 36,000  Level FlightAware
06:12AM 58.5020 37.9470 185° South 496 571 36,000  Level FlightAware
06:13AM 58.4060 37.9310 185° South 497 572 36,000  Level FlightAware
06:13AM 58.3100 37.9140 185° South 497 572 36,000  Level FlightAware
06:14AM 58.2070 37.8970 185° South 495 570 36,000  Level FlightAware
06:15AM 58.1180 37.8810 185° South 494 568 36,000  Level FlightAware
06:15AM 58.0240 37.8660 185° South 493 567 36,000  Level FlightAware
06:16AM 57.9230 37.8490 185° South 492 566 36,000  Level FlightAware
06:17AM 57.8330 37.8340 185° South 490 564 36,000  Level FlightAware
06:18AM 57.7420 37.8190 185° South 490 564 36,000  Level FlightAware
06:18AM 57.6430 37.8030 185° South 488 562 36,000  Level FlightAware
06:19AM 57.5510 37.7870 185° South 489 563 36,000  Level FlightAware
06:20AM 57.4510 37.7700 185° South 489 563 36,000  Level FlightAware
06:20AM 57.3620 37.7550 185° South 490 564 36,000 -360 Level FlightAware
06:21AM 57.2590 37.7380 185° South 499 574 35,500 -1,680 Descending FlightAware
06:22AM 57.1690 37.7220 186° South 494 568 33,700 -3,180 Descending FlightAware
06:22AM 57.0770 37.7000 187° South 496 571 31,300 -2,820 Descending FlightAware
06:23AM 56.9970 37.6900 184° South 478 550 30,200 -2,400 Descending FlightAware
06:24AM 56.8920 37.7020 176° South 470 541 27,900 -3,000 Descending FlightAware
06:25AM 56.8060 37.7170 175° South 465 535 25,700 -3,120 Descending FlightAware
06:25AM 56.7090 37.7330 175° South 451 519 23,500 -3,000 Descending FlightAware
06:26AM 56.6270 37.7460 175° South 439 505 21,500 -2,940 Descending FlightAware
06:27AM 56.5370 37.7600 175° South 425 489 19,400 -2,760 Descending FlightAware
06:27AM 56.4600 37.7720 175° South 415 478 17,600 -2,400 Descending FlightAware
06:28AM 56.3770 37.7850 175° South 394 453 16,000 -2,160 Descending FlightAware
06:29AM 56.3050 37.7960 175° South 375 432 14,600 -2,220 Descending FlightAware
06:29AM 56.2390 37.8070 175° South 346 398 13,100 -1,860 Descending FlightAware
06:30AM 56.1720 37.8170 175° South 312 359 12,000 -780 Descending FlightAware
06:31AM 56.1160 37.8260 175° South 284 327 12,000  Level FlightAware
06:32AM 56.0650 37.8330 176° South 274 315 12,000  Level FlightAware
06:32AM 56.0090 37.8420 175° South 271 312 12,000 -240 Level FlightAware
06:35AM 55.7066 37.8746 177° South  Level Estimated
06:35AM 55.8630 37.9160 177° South 258 297 11,400  Level FlightAware
06:35AM 55.8300 37.9920 128° Southeast 258 297 10,200 -1,380 Descending FlightAware
06:36AM 55.8080 38.0400 129° Southeast 252 290 9,700 -1,200 Descending FlightAware
06:36AM 55.7820 38.0850 136° Southeast 242 278 9,000 -1,380 Descending FlightAware
06:36AM 55.7710 38.0900 166° South 238 274 8,800 -1,500 Descending FlightAware
06:37AM 55.7420 38.0740 197° South 231 266 8,000 -1,740 Descending FlightAware
06:37AM 55.7320 38.0530 230° Southwest 230 265 7,500 -1,800 Descending FlightAware
06:38AM 55.7150 38.0140 232° Southwest 230 265 6,800 -1,440 Descending FlightAware
06:38AM 55.6960 37.9710 232° Southwest 222 255 6,200 -1,380 Descending FlightAware
06:38AM 55.6860 37.9480 232° Southwest 219 252 5,800 -1,380 Descending FlightAware
06:39AM 55.6710 37.9140 232° Southwest 201 231 5,300 -1,200 Descending FlightAware
06:39AM 55.6630 37.8960 232° Southwest 197 227 5,000 -1,500 Descending FlightAware
06:40AM 55.6450 37.8580 230° Southwest 197 227 4,200 -1,620 Descending FlightAware
06:40AM 55.6330 37.8460 209° Southwest 193 222 3,800 -1,440 Descending FlightAware
06:40AM 55.6250 37.8400 203° Southwest 196 226 3,600 -1,200 Descending FlightAware
06:40AM 55.6000 37.8220 202° Southwest 200 230 3,000 -1,140 Descending FlightAware
06:41AM 55.5740 37.8030 202° Southwest 197 227 2,500 -780 Descending FlightAware
06:41AM 55.5540 37.7880 203° Southwest 183 211 2,300 -480 Descending FlightAware
06:42AM 55.5420 37.7800 201° Southwest 177 204 2,200 -240 Descending FlightAware
06:42AM 55.5330 37.7740 201° Southwest 174 200 2,200 -180 Level FlightAware
06:42AM 55.5160 37.7940 146° Southeast 164 189 2,100 -180 Descending FlightAware
06:43AM 55.5080 37.8080 135° Southeast 167 192 2,100 -180 Level FlightAware
06:43AM 55.4900 37.8280 148° Southeast 154 177 2,000 -480 Descending FlightAware
06:43AM 55.4840 37.8350 147° Southeast 152 175 1,800 -900 Descending FlightAware
06:44AM 55.4660 37.8560 147° Southeast 146 168 1,400 -720 Descending FlightAware
06:44AM 55.4580 37.8660 145° Southeast 148 170 1,300 -600 Descending FlightAware
06:44AM 55.4450 37.8820 145° Southeast 142 163 1,000 -780 Descending FlightAware
06:45AM 55.4270 37.9030 146° Southeast 153 176 600 -480 Descending FlightAware
06:45AM 55.4140 37.9190 145° Southeast 153 176 600  Level FlightAware
06:48AM 55.4088 37.9063 161° South  Level Estimated
06:49AM 55.4088 37.9063 161° South  Level Estimated
06:50AM 55.4088 37.9063 161° South  Level Estimated
06:51AM 55.4088 37.9063 161° South  Level Estimated
06:52AM 55.4088 37.9063 161° South  Level Estimated
06:53AM 55.4088 37.9063 161° South  Level Estimated
06:54AM 55.4088 37.9063 161° South  Level Estimated
06:55AM 55.4088 37.9063 161° South  Level Estimated